COOK1: Arkansas River Nr Coolidge, KS

                                SHEF ID:       COOK1     ARKANSAS R NR COOLIDGE, KS
STATION TYPE:
Regulating: Stage = 8.00, Flow = 2050

PRECIP STAGE STAGE(2) RIV-FLOW WTR-TEMP CONDUCT BAT-LOAD
in ft ft cfs F umho/cm volt
Ccp-Rev Ccp-Rev Ccp-Rev Ccp-Rev Ccp-Rev Ccp-Rev Ccp-Rev
(America/Chicago)
06/12 00:00 0.00 2.57 2.62 60 74.41 6138 12.95
06/12 01:00 0.00 2.58 2.61 61 72.99 6176 12.95
06/12 02:00 0.00 2.58 2.63 61 71.64 6192 12.89
06/12 03:00 0.00 2.58 2.63 61 70.48 6199 12.89
06/12 04:00 0.00 2.58 2.65 61 69.71 6197 12.89
06/12 05:00 0.00 2.59 2.64 62 69.13 6179 12.89
06/12 06:00 0.00 2.60 2.65 63 68.52 6174 12.83
06/12 07:00 0.00 2.59 2.65 62 67.75 6167 12.83
06/12 08:00 0.00 2.59 2.65 62 67.46 6138 12.89
06/12 09:00 0.00 2.60 2.65 63 68.14 6116 12.89
06/12 10:00 0.00 2.61 2.65 63 69.91 6095 13.07
06/12 11:00 0.00 2.60 2.66 63 72.30 6070 13.48
06/12 12:00 0.00 2.61 2.65 63 74.98 6025 13.71
06/12 13:00 0.00 2.62 2.66 64 77.79 5976 13.65
06/12 14:00 0.00 2.61 2.66 63 80.47 5938 ----
06/12 15:00 0.00 2.63 2.66 65 82.69 5911 13.71
06/12 16:00 0.00 2.64 2.67 66 84.52 5873 13.53
06/12 17:00 0.00 2.65 2.70 67 85.86 5814 13.42
06/12 18:00 0.00 2.65 2.71 67 86.25 5762 13.30
06/12 19:00 0.00 2.65 2.71 67 86.22 5722 13.18
06/12 20:00 0.00 2.67 2.70 69 85.37 5724 13.12
06/12 21:00 0.00 2.68 2.71 70 84.22 5742 13.07
06/12 22:00 0.00 2.68 2.71 70 82.78 5737 13.07
06/12 23:00 0.00 2.67 2.70 69 81.46 5733 13.00
Data processed at Thu 13Jun2024 04:30 GMT

Parsing this webpage?

Checkout our new Data API! CWMSDataAPI (CDA)

Timeseries IDs (TSIDs)

TSIDs used from left to right in the data table
COOL.Precip-Inc.Total.1Hour.1Hour.Ccp-Rev
COOL.Stage.Inst.1Hour.0.Ccp-Rev
COOL.Stage-Alt.Inst.1Hour.0.Ccp-Rev
COOL.Flow.Inst.1Hour.0.Ccp-Rev
COOL.Temp-Water.Inst.1Hour.0.Ccp-Rev
COOL.Cond.Inst.1Hour.0.Ccp-Rev
COOL.Volt-Battery Load.Inst.1Hour.0.Ccp-Rev

                            

All information presented herein is the property of the government of the United States of America and may be revised or deleted at any time without prior notice. Dissemination of this information without the expressed written consent of the Public Affairs Office, Tulsa District U.S. Army Corps of Engineers is strictly prohibited. These data are gathered electronically and, as presented, have NOT undergone any form of quality control. These data are NOT guaranteed to be valid or correct.